createdAt,value
2023-01-02T00:07:34.000Z,100
2023-01-02T00:12:35.000Z,100
2023-01-02T00:17:34.000Z,100
2023-01-02T00:22:35.000Z,100
2023-01-02T00:27:34.000Z,100
2023-01-02T00:32:35.000Z,100
2023-01-02T00:37:35.000Z,100
2023-01-02T00:42:34.000Z,100
2023-01-02T00:47:35.000Z,100
2023-01-02T00:52:35.000Z,100
2023-01-02T00:57:35.000Z,100
2023-01-02T01:02:34.000Z,100
2023-01-02T01:07:35.000Z,100
2023-01-02T01:12:34.000Z,100
2023-01-02T01:17:35.000Z,100
2023-01-02T01:22:34.000Z,100
2023-01-02T01:27:35.000Z,100
2023-01-02T01:32:34.000Z,100
2023-01-02T01:37:35.000Z,100
2023-01-02T01:42:35.000Z,100
2023-01-02T01:47:35.000Z,100
2023-01-02T01:52:35.000Z,100
2023-01-02T01:57:34.000Z,100
2023-01-02T02:02:35.000Z,100
2023-01-02T02:07:34.000Z,100
2023-01-02T02:12:38.000Z,100
2023-01-02T02:17:34.000Z,100
2023-01-02T02:22:35.000Z,100
2023-01-02T02:27:35.000Z,100
2023-01-02T02:32:35.000Z,100
2023-01-02T02:37:35.000Z,100
2023-01-02T02:42:34.000Z,100
2023-01-02T02:57:34.000Z,100
2023-01-02T03:02:35.000Z,100
2023-01-02T03:07:34.000Z,100
2023-01-02T03:12:35.000Z,100
2023-01-02T03:17:34.000Z,100
2023-01-02T03:27:35.000Z,100
2023-01-02T03:32:35.000Z,100
2023-01-02T03:37:34.000Z,100
2023-01-02T03:42:35.000Z,100
2023-01-02T03:47:34.000Z,100
2023-01-02T03:52:36.000Z,100
2023-01-02T03:57:34.000Z,100
2023-01-02T04:02:35.000Z,100
2023-01-02T04:07:34.000Z,100
2023-01-02T04:12:35.000Z,100
2023-01-02T04:17:35.000Z,100
2023-01-02T04:27:35.000Z,100
2023-01-02T04:32:35.000Z,100
2023-01-02T04:47:35.000Z,100
2023-01-02T04:52:34.000Z,100
2023-01-02T04:57:35.000Z,100
2023-01-02T05:02:35.000Z,100
2023-01-02T05:07:35.000Z,100
2023-01-02T05:12:34.000Z,100
2023-01-02T05:17:35.000Z,100
2023-01-02T05:22:35.000Z,100
2023-01-02T05:27:34.000Z,100
2023-01-02T05:32:35.000Z,100
2023-01-02T05:37:34.000Z,100
2023-01-02T05:42:35.000Z,100
2023-01-02T05:47:34.000Z,100
2023-01-02T05:52:35.000Z,100
2023-01-02T06:02:35.000Z,100
2023-01-02T06:07:35.000Z,100
2023-01-02T06:12:34.000Z,100
2023-01-02T06:17:35.000Z,100
2023-01-02T06:22:34.000Z,100
2023-01-02T06:27:35.000Z,100
2023-01-02T06:32:35.000Z,100
2023-01-02T06:37:35.000Z,100
2023-01-02T06:47:35.000Z,100
2023-01-02T06:52:34.000Z,100
2023-01-02T06:57:35.000Z,100
2023-01-02T07:02:34.000Z,100
2023-01-02T07:07:35.000Z,100
2023-01-02T07:12:34.000Z,100
2023-01-02T07:17:35.000Z,100
2023-01-02T07:22:35.000Z,100
2023-01-02T07:27:35.000Z,100
2023-01-02T07:32:37.000Z,96.66
2023-01-02T07:37:35.000Z,79.7
2023-01-02T07:47:34.000Z,61.31
2023-01-02T07:52:35.000Z,46.91
2023-01-02T07:57:35.000Z,40
2023-01-02T08:07:35.000Z,40.5
2023-01-02T08:12:35.000Z,43.73
2023-01-02T08:17:35.000Z,46.44
2023-01-02T08:22:35.000Z,49.3
2023-01-02T08:27:35.000Z,53.52
2023-01-02T08:32:34.000Z,53.52
2023-01-02T08:42:34.000Z,60.48
2023-01-02T08:47:35.000Z,58.33
2023-01-02T08:52:34.000Z,57.33
2023-01-02T08:57:35.000Z,59.02
2023-01-02T09:02:35.000Z,56.39
2023-01-02T09:12:35.000Z,49.84
2023-01-02T09:17:35.000Z,55.01
2023-01-02T09:22:34.000Z,61.14
2023-01-02T09:27:35.000Z,67.19
2023-01-02T09:32:34.000Z,73.36
2023-01-02T09:42:34.000Z,85.1
2023-01-02T09:47:35.000Z,90.18
2023-01-02T09:52:34.000Z,92.08
2023-01-02T09:57:35.000Z,94.57
2023-01-02T10:02:34.000Z,98.82
2023-01-02T10:07:35.000Z,100
2023-01-02T10:12:35.000Z,100
2023-01-02T10:17:34.000Z,100
2023-01-02T10:22:34.000Z,100
2023-01-02T10:27:35.000Z,99.95
2023-01-02T10:32:35.000Z,100
2023-01-02T10:37:35.000Z,100
2023-01-02T10:52:35.000Z,99.94
2023-01-02T10:57:35.000Z,100
2023-01-02T11:02:35.000Z,100
2023-01-02T11:07:35.000Z,100
2023-01-02T11:12:37.000Z,100
2023-01-02T11:17:35.000Z,100
2023-01-02T11:22:35.000Z,100
2023-01-02T11:27:35.000Z,100
2023-01-02T11:32:35.000Z,100
2023-01-02T11:37:34.000Z,100
2023-01-02T11:42:35.000Z,100
2023-01-02T11:47:35.000Z,100
2023-01-02T11:52:35.000Z,100
2023-01-02T11:57:35.000Z,100
2023-01-02T12:02:35.000Z,100
2023-01-02T12:07:35.000Z,100
2023-01-02T12:12:35.000Z,100
2023-01-02T12:17:35.000Z,100
2023-01-02T12:22:35.000Z,100
2023-01-02T12:27:35.000Z,100
2023-01-02T12:37:35.000Z,100
2023-01-02T12:42:35.000Z,100
2023-01-02T12:47:34.000Z,100
2023-01-02T12:52:35.000Z,100
2023-01-02T12:57:35.000Z,100
2023-01-02T13:02:35.000Z,100
2023-01-02T13:07:35.000Z,100
2023-01-02T13:12:35.000Z,100
2023-01-02T13:17:35.000Z,100
2023-01-02T13:22:34.000Z,100
2023-01-02T13:27:35.000Z,100
2023-01-02T13:32:35.000Z,100
2023-01-02T13:37:34.000Z,100
2023-01-02T13:42:35.000Z,100
2023-01-02T13:47:44.000Z,100
2023-01-02T13:52:34.000Z,100
2023-01-02T13:57:35.000Z,100
2023-01-02T14:02:34.000Z,100
2023-01-02T14:07:35.000Z,100
2023-01-02T14:12:35.000Z,100
2023-01-02T14:17:35.000Z,100
2023-01-02T14:22:35.000Z,100
2023-01-02T14:27:35.000Z,100
2023-01-02T14:32:34.000Z,100
2023-01-02T14:37:35.000Z,100
2023-01-02T14:42:41.000Z,100
2023-01-02T14:47:34.000Z,100
2023-01-02T14:52:34.000Z,100
2023-01-02T14:57:35.000Z,100
2023-01-02T15:02:35.000Z,100
2023-01-02T15:07:34.000Z,100
2023-01-02T15:12:34.000Z,100
2023-01-02T15:17:34.000Z,100
2023-01-02T15:22:34.000Z,100
2023-01-02T15:27:34.000Z,100
2023-01-02T15:32:35.000Z,100
2023-01-02T15:37:34.000Z,100
2023-01-02T15:42:35.000Z,100
2023-01-02T15:47:38.000Z,100
2023-01-02T15:52:35.000Z,100
2023-01-02T15:57:34.000Z,100
2023-01-02T16:02:35.000Z,100
2023-01-02T16:07:35.000Z,100
2023-01-02T16:12:35.000Z,100
2023-01-02T16:17:34.000Z,100
2023-01-02T16:22:35.000Z,100
2023-01-02T16:27:35.000Z,100
2023-01-02T16:32:34.000Z,100
2023-01-02T16:37:35.000Z,100
2023-01-02T16:42:35.000Z,100
2023-01-02T16:47:34.000Z,100
2023-01-02T16:52:34.000Z,100
2023-01-02T16:57:35.000Z,100
2023-01-02T17:02:34.000Z,100
2023-01-02T17:07:35.000Z,100
2023-01-02T17:12:34.000Z,100
2023-01-02T17:17:35.000Z,100
2023-01-02T17:22:34.000Z,100
2023-01-02T17:27:35.000Z,100
2023-01-02T17:32:35.000Z,100
2023-01-02T17:37:35.000Z,100
2023-01-02T17:42:34.000Z,100
2023-01-02T17:48:11.000Z,100
2023-01-02T17:52:34.000Z,100
2023-01-02T17:57:35.000Z,100
2023-01-02T18:02:35.000Z,100
2023-01-02T18:07:35.000Z,100
2023-01-02T18:12:34.000Z,100
2023-01-02T18:17:40.000Z,100
2023-01-02T18:22:35.000Z,100
2023-01-02T18:27:35.000Z,100
2023-01-02T18:37:35.000Z,100
2023-01-02T18:42:35.000Z,100
2023-01-02T18:47:34.000Z,100
2023-01-02T18:52:34.000Z,100
2023-01-02T18:57:35.000Z,100
2023-01-02T19:02:35.000Z,100
2023-01-02T19:07:34.000Z,100
2023-01-02T19:12:35.000Z,100
2023-01-02T19:17:34.000Z,100
2023-01-02T19:22:35.000Z,100
2023-01-02T19:27:35.000Z,100
2023-01-02T19:32:35.000Z,100
2023-01-02T19:37:35.000Z,100
2023-01-02T19:42:35.000Z,100
2023-01-02T19:47:34.000Z,100
2023-01-02T19:52:34.000Z,100
2023-01-02T19:57:35.000Z,100
2023-01-02T20:02:35.000Z,100
2023-01-02T20:07:35.000Z,100
2023-01-02T20:12:34.000Z,100
2023-01-02T20:17:35.000Z,100
2023-01-02T20:22:34.000Z,100
2023-01-02T20:27:35.000Z,100
2023-01-02T20:32:34.000Z,100
2023-01-02T20:37:35.000Z,100
2023-01-02T20:42:35.000Z,100
2023-01-02T20:47:34.000Z,100
2023-01-02T20:52:35.000Z,100
2023-01-02T20:57:35.000Z,100
2023-01-02T21:02:35.000Z,100
2023-01-02T21:07:35.000Z,100
2023-01-02T21:12:34.000Z,100
2023-01-02T21:17:35.000Z,100
2023-01-02T21:22:35.000Z,100
2023-01-02T21:27:34.000Z,100
2023-01-02T21:32:35.000Z,100
2023-01-02T21:37:34.000Z,100
2023-01-02T21:42:35.000Z,100
2023-01-02T21:47:35.000Z,100
2023-01-02T21:52:34.000Z,100
2023-01-02T21:58:13.000Z,100
2023-01-02T22:02:46.000Z,100
2023-01-02T22:12:35.000Z,100
2023-01-02T22:17:34.000Z,100
2023-01-02T22:22:35.000Z,100
2023-01-02T22:27:35.000Z,100
2023-01-02T22:32:35.000Z,100
2023-01-02T22:37:35.000Z,100
2023-01-02T22:43:09.000Z,100
2023-01-02T22:47:35.000Z,100
2023-01-02T22:52:34.000Z,100
2023-01-02T22:57:35.000Z,100
2023-01-02T23:02:34.000Z,100
2023-01-02T23:07:35.000Z,100
2023-01-02T23:12:34.000Z,100
2023-01-02T23:17:35.000Z,100
2023-01-02T23:22:35.000Z,100
2023-01-02T23:27:35.000Z,100
2023-01-02T23:32:35.000Z,100
2023-01-02T23:37:34.000Z,100
2023-01-02T23:47:35.000Z,100
2023-01-02T23:52:35.000Z,100
2023-01-02T23:57:35.000Z,100
